Time;durP1;ratioP1;P1;durP2;ratioP2;P2;SDS_P1;SDS_P2;PMS_P1;PMS_P2;Temp;Humidity;BMP_temperature;BMP_pressure;BME280_temperature;BME280_humidity;BME280_pressure;Samples;Min_cycle;Max_cycle;Signal;HPM_P1;HPM_P2
2022/06/19 00:01:23;;;;;;;11.77;4.90;;;;;;;16.40;55.76;100831.34;123496;1099;104380;-78
2022/06/19 00:03:56;;;;;;;13.70;5.37;;;;;;;16.34;55.87;100833.00;123498;1099;104283;-78
2022/06/19 00:06:29;;;;;;;15.00;5.50;;;;;;;16.27;55.90;100836.42;123520;1099;104261;-79
2022/06/19 00:09:00;;;;;;;11.77;5.10;;;;;;;16.21;55.74;100833.66;123501;1099;104604;-79
2022/06/19 00:11:33;;;;;;;13.27;5.53;;;;;;;16.18;56.24;100833.61;123542;1099;104265;-78
2022/06/19 00:14:06;;;;;;;11.87;5.10;;;;;;;16.11;57.19;100835.27;123550;1099;104232;-78
2022/06/19 00:16:38;;;;;;;13.70;5.90;;;;;;;16.08;56.50;100837.85;123578;1099;104377;-78
2022/06/19 00:19:09;;;;;;;13.33;5.30;;;;;;;16.03;56.76;100839.50;123493;1099;104320;-78
2022/06/19 00:21:41;;;;;;;12.65;5.50;;;;;;;16.00;57.35;100836.79;123541;1099;104689;-78
2022/06/19 00:24:13;;;;;;;13.37;5.53;;;;;;;15.98;57.23;100835.88;123500;1099;104322;-78
2022/06/19 00:26:44;;;;;;;11.55;5.20;;;;;;;15.93;57.74;100837.56;123533;1099;104345;-78
2022/06/19 00:29:15;;;;;;;17.70;5.00;;;;;;;15.90;57.12;100838.38;123538;1099;104341;-78
2022/06/19 00:31:47;;;;;;;12.50;4.87;;;;;;;15.87;58.08;100830.38;123525;1099;104641;-78
2022/06/19 00:34:18;;;;;;;10.10;4.60;;;;;;;15.84;57.84;100832.97;123495;1099;104347;-78
2022/06/19 00:36:51;;;;;;;11.90;4.90;;;;;;;15.81;57.28;100831.14;123521;1099;104293;-78
2022/06/19 00:39:23;;;;;;;12.07;4.80;;;;;;;15.78;57.61;100828.47;123514;1099;104334;-78
2022/06/19 00:41:54;;;;;;;15.23;4.83;;;;;;;15.77;57.86;100826.67;123526;1099;104309;-78
2022/06/19 00:44:26;;;;;;;10.53;4.83;;;;;;;15.77;57.79;100831.97;123494;1099;104431;-78
2022/06/19 00:47:17;;;;;;;10.40;4.70;;;;;;;15.77;57.94;100836.38;123595;1098;104291;-78
2022/06/19 00:49:54;;;;;;;13.47;5.03;;;;;;;15.74;57.82;100837.16;123462;1099;104245;-78
2022/06/19 00:52:30;;;;;;;11.90;4.93;;;;;;;15.70;58.21;100840.59;123568;1099;104274;-78
2022/06/19 00:55:05;;;;;;;14.57;5.30;;;;;;;15.70;58.09;100842.36;123644;1099;104342;-77
2022/06/19 00:57:42;;;;;;;12.90;5.00;;;;;;;15.68;58.04;100839.69;123646;1099;104444;-78
2022/06/19 01:00:23;;;;;;;16.10;5.27;;;;;;;15.69;58.19;100840.56;123623;1099;104245;-78
2022/06/19 01:02:57;;;;;;;11.37;5.13;;;;;;;15.68;57.57;100844.09;123692;1099;104261;-78
2022/06/19 01:05:28;;;;;;;;;;;;;;;15.65;59.47;100847.56;123722;1098;104246;-78
2022/06/19 01:08:01;;;;;;;13.40;4.97;;;;;;;15.62;58.24;100851.02;123626;1099;104269;-78
2022/06/19 01:10:37;;;;;;;14.45;5.22;;;;;;;15.58;58.55;100842.98;123633;1099;104262;-78
2022/06/19 01:13:09;;;;;;;11.43;5.17;;;;;;;15.56;58.26;100852.66;123684;1098;104338;-78
2022/06/19 01:15:41;;;;;;;13.03;5.67;;;;;;;15.51;59.02;100857.84;123649;1099;104751;-78
2022/06/19 01:18:14;;;;;;;13.93;5.33;;;;;;;15.46;58.67;100859.52;123580;1099;104261;-78
2022/06/19 01:20:46;;;;;;;11.20;5.07;;;;;;;15.39;59.32;100860.23;123593;1099;104262;-78
2022/06/19 01:23:28;;;;;;;12.10;5.43;;;;;;;15.34;59.65;100861.89;123717;1099;104376;-78
2022/06/19 01:25:59;;;;;;;11.97;5.30;;;;;;;15.27;59.59;100855.58;123773;1099;104312;-79
2022/06/19 01:28:54;;;;;;;13.87;5.73;;;;;;;15.22;59.88;100851.92;123792;1099;104242;-79
2022/06/19 01:31:29;;;;;;;15.10;5.40;;;;;;;15.18;59.28;100858.90;123719;1099;104236;-78
2022/06/19 01:34:26;;;;;;;17.93;5.57;;;;;;;15.18;60.07;100855.38;123799;1099;104332;-78
2022/06/19 01:36:59;;;;;;;10.83;5.23;;;;;;;15.16;59.67;100850.05;123690;1099;104221;-78
2022/06/19 01:39:35;;;;;;;13.00;5.00;;;;;;;15.16;59.74;100854.42;123714;1099;104226;-78
2022/06/19 01:42:08;;;;;;;12.60;5.57;;;;;;;15.11;59.71;100859.61;123652;1099;104945;-78
2022/06/19 01:44:40;;;;;;;10.63;4.73;;;;;;;15.07;60.24;100863.94;123766;1099;104360;-78
2022/06/19 01:47:13;;;;;;;10.35;4.25;;;;;;;15.03;60.40;100861.19;123603;1099;104334;-78
2022/06/19 01:49:49;;;;;;;11.93;4.37;;;;;;;14.99;60.09;100860.23;123532;1099;104360;-79
2022/06/19 01:52:21;;;;;;;12.17;5.03;;;;;;;14.96;60.04;100857.52;123493;1099;104335;-78
2022/06/19 01:54:57;;;;;;;14.90;4.33;;;;;;;14.96;60.09;100853.96;123559;1099;104421;-77
2022/06/19 01:57:30;;;;;;;9.90;4.47;;;;;;;14.96;60.02;100853.96;123539;1099;104992;-77
2022/06/19 02:00:02;;;;;;;11.30;4.85;;;;;;;14.97;60.17;100856.64;123501;1098;104367;-78
2022/06/19 02:02:46;;;;;;;13.57;5.00;;;;;;;14.96;60.54;100860.16;123163;1099;104402;-78
2022/06/19 02:05:18;;;;;;;9.47;4.60;;;;;;;14.97;59.87;100859.28;123273;1099;104338;-78
2022/06/19 02:07:50;;;;;;;11.67;4.80;;;;;;;14.95;60.14;100854.84;123288;1099;104440;-78
2022/06/19 02:10:23;;;;;;;13.15;4.90;;;;;;;14.94;60.43;100863.61;123298;1099;104409;-79
2022/06/19 02:12:54;;;;;;;10.37;5.10;;;;;;;14.92;60.28;100868.86;123221;1099;104391;-78
2022/06/19 02:15:26;;;;;;;12.53;4.80;;;;;;;14.89;60.49;100868.78;123217;1099;104387;-77
2022/06/19 02:17:57;;;;;;;11.55;4.75;;;;;;;14.87;60.35;100865.22;123202;1099;104446;-78
2022/06/19 02:20:29;;;;;;;14.07;5.20;;;;;;;14.85;60.23;100866.91;123238;1099;104284;-78
2022/06/19 02:23:01;;;;;;;14.40;5.17;;;;;;;14.84;60.96;100868.67;123196;1099;104402;-78
2022/06/19 02:25:35;;;;;;;12.95;5.05;;;;;;;14.82;60.30;100867.75;123277;1099;104344;-79
2022/06/19 02:28:09;;;;;;;12.57;5.00;;;;;;;14.83;60.55;100872.16;123154;1099;104373;-78
2022/06/19 02:30:41;;;;;;;11.95;4.83;;;;;;;14.82;60.32;100864.20;123273;1099;104450;-78
2022/06/19 02:33:16;;;;;;;10.83;5.07;;;;;;;14.81;60.30;100870.36;123273;1099;104408;-78
2022/06/19 02:35:47;;;;;;;10.47;4.43;;;;;;;14.80;60.43;100872.09;123521;1099;104277;-79
2022/06/19 02:38:21;;;;;;;11.53;5.13;;;;;;;14.82;60.62;100874.77;123483;1099;104249;-78
2022/06/19 02:41:03;;;;;;;9.80;4.73;;;;;;;14.81;61.66;100878.28;123536;1099;104313;-77
2022/06/19 02:43:35;;;;;;;10.75;4.80;;;;;;;14.79;61.09;100878.25;123580;1099;104623;-78
2022/06/19 02:46:08;;;;;;;12.33;4.80;;;;;;;14.79;60.81;100887.90;123491;1099;104354;-78
2022/06/19 02:48:40;;;;;;;10.37;4.40;;;;;;;14.79;61.65;100887.90;123571;1099;104341;-78
2022/06/19 02:51:11;;;;;;;11.43;4.77;;;;;;;14.80;61.22;100895.86;123473;1099;104353;-78
2022/06/19 02:53:42;;;;;;;9.05;4.40;;;;;;;14.79;60.82;100901.11;123494;1099;104783;-78
2022/06/19 02:56:14;;;;;;;12.67;4.63;;;;;;;14.79;61.26;100899.38;123557;1099;104267;-77
2022/06/19 02:58:45;;;;;;;9.23;4.50;;;;;;;14.80;62.25;100898.50;123467;1099;104328;-77
2022/06/19 03:01:16;;;;;;;8.87;4.10;;;;;;;14.79;62.13;100894.09;123532;1099;104172;-78
2022/06/19 03:03:48;;;;;;;12.63;4.53;;;;;;;14.80;61.27;100900.27;123685;1099;104354;-78
2022/06/19 03:06:19;;;;;;;10.03;4.60;;;;;;;14.80;62.25;100898.50;123680;1099;104364;-78
2022/06/19 03:08:53;;;;;;;8.77;4.40;;;;;;;14.80;61.69;100892.34;123671;1098;104355;-77
2022/06/19 03:11:25;;;;;;;10.20;4.33;;;;;;;14.81;61.83;100902.06;123663;1099;104239;-78
2022/06/19 03:13:56;;;;;;;9.30;4.20;;;;;;;14.83;61.49;100906.51;123648;1099;104240;-78
2022/06/19 03:16:27;;;;;;;11.33;4.30;;;;;;;14.86;61.61;100911.86;123692;1099;104310;-78
2022/06/19 03:19:00;;;;;;;9.23;4.30;;;;;;;14.88;62.12;100909.27;123490;1099;104293;-78
2022/06/19 03:21:32;;;;;;;11.20;4.80;;;;;;;14.90;61.66;100907.58;123506;1099;104294;-78
2022/06/19 03:24:03;;;;;;;11.00;4.53;;;;;;;14.91;62.19;100901.41;123508;1099;104259;-78
2022/06/19 03:26:35;;;;;;;10.33;4.63;;;;;;;14.93;61.93;100905.01;123521;1099;104239;-78
2022/06/19 03:29:07;;;;;;;10.53;4.53;;;;;;;14.98;62.11;100908.64;123650;1099;104351;-79
2022/06/19 03:31:38;;;;;;;12.13;4.70;;;;;;;15.04;62.21;100910.55;123596;1099;104450;-77
2022/06/19 03:34:09;;;;;;;8.70;4.10;;;;;;;15.07;61.77;100907.98;123636;1099;104338;-77
2022/06/19 03:36:41;;;;;;;9.20;4.00;;;;;;;15.10;61.83;100911.58;123645;1099;104293;-78
2022/06/19 03:39:12;;;;;;;7.75;3.80;;;;;;;15.15;61.90;100909.05;123651;1099;104262;-78
2022/06/19 03:41:44;;;;;;;9.07;4.07;;;;;;;15.21;61.88;100914.48;123608;1099;104771;-78
2022/06/19 03:44:15;;;;;;;8.90;4.20;;;;;;;15.26;62.05;100911.95;123605;1099;104238;-78
2022/06/19 03:46:47;;;;;;;8.80;4.10;;;;;;;15.32;62.25;100912.09;123531;1099;104239;-77
2022/06/19 03:49:18;;;;;;;11.23;4.70;;;;;;;15.40;61.72;100910.50;123495;1099;104303;-77
2022/06/19 03:51:50;;;;;;;6.53;3.93;;;;;;;15.44;61.23;100907.08;123534;1099;104335;-78
2022/06/19 03:54:21;;;;;;;8.80;3.97;;;;;;;15.50;61.22;100908.94;123558;1099;104280;-79
2022/06/19 03:56:52;;;;;;;10.10;4.47;;;;;;;15.57;61.95;100902.94;123758;1099;104348;-78
2022/06/19 03:59:24;;;;;;;11.15;4.40;;;;;;;15.65;62.22;100908.40;123569;1099;104236;-78
2022/06/19 04:01:55;;;;;;;7.27;3.90;;;;;;;15.71;61.16;100910.30;123523;1099;104386;-78
2022/06/19 04:04:27;;;;;;;8.83;3.90;;;;;;;15.76;61.25;100908.63;123484;1099;104264;-78
2022/06/19 04:06:58;;;;;;;9.87;3.70;;;;;;;15.80;61.33;100908.77;123451;1099;104530;-77
2022/06/19 04:09:30;;;;;;;9.40;4.10;;;;;;;15.86;61.16;100910.62;123482;1099;104354;-77
2022/06/19 04:12:01;;;;;;;5.90;3.80;;;;;;;15.92;61.40;100915.16;123485;1099;104357;-77
2022/06/19 04:14:32;;;;;;;11.17;3.80;;;;;;;15.99;60.95;100917.08;123520;1099;104261;-78
2022/06/19 04:17:04;;;;;;;8.60;3.80;;;;;;;16.07;60.99;100914.59;123577;1099;105185;-78
2022/06/19 04:19:36;;;;;;;11.03;4.10;;;;;;;16.14;61.60;100912.09;123604;1099;104261;-78
2022/06/19 04:22:08;;;;;;;7.35;3.70;;;;;;;16.20;60.92;100915.71;123466;1098;104383;-78
2022/06/19 04:24:39;;;;;;;7.90;4.10;;;;;;;16.27;60.93;100912.33;123498;1098;104232;-77
2022/06/19 04:27:11;;;;;;;11.20;3.90;;;;;;;16.35;61.24;100921.30;123559;1099;104245;-78
2022/06/19 04:29:43;;;;;;;9.33;3.90;;;;;;;16.42;60.76;100923.17;123595;1099;104283;-77
2022/06/19 04:32:14;;;;;;;9.53;3.70;;;;;;;16.47;60.44;100912.67;123616;1099;104326;-77
2022/06/19 04:34:46;;;;;;;8.50;3.90;;;;;;;16.51;60.58;100912.75;123555;1099;104647;-77
2022/06/19 04:37:17;;;;;;;6.20;3.40;;;;;;;16.58;60.93;100913.78;123506;1099;104265;-78
2022/06/19 04:39:48;;;;;;;6.87;3.50;;;;;;;16.66;60.65;100909.49;123507;1099;104454;-79
2022/06/19 04:42:20;;;;;;;9.50;3.70;;;;;;;16.74;60.62;100919.34;123517;1099;104274;-79
2022/06/19 04:44:51;;;;;;;8.97;3.50;;;;;;;16.78;59.85;100914.13;123469;1099;104698;-78
2022/06/19 04:47:23;;;;;;;7.37;3.47;;;;;;;16.85;59.93;100915.99;123650;1099;104316;-77
2022/06/19 04:49:54;;;;;;;7.47;3.43;;;;;;;16.94;59.61;100914.38;123725;1099;104262;-77
2022/06/19 04:52:25;;;;;;;4.80;3.10;;;;;;;17.02;59.54;100907.47;123614;1099;104259;-77
2022/06/19 04:54:57;;;;;;;7.50;3.60;;;;;;;17.09;59.09;100917.28;123549;1099;104650;-78
2022/06/19 04:57:28;;;;;;;9.95;3.10;;;;;;;17.16;59.24;100911.22;123561;1099;104249;-78
2022/06/19 05:00:00;;;;;;;5.97;3.00;;;;;;;17.23;58.98;100917.50;123506;1099;104261;-78
2022/06/19 05:02:31;;;;;;;6.43;3.00;;;;;;;17.32;58.63;100912.33;123579;1099;104265;-77
2022/06/19 05:05:03;;;;;;;7.47;3.43;;;;;;;17.40;58.93;100920.40;123503;1099;104187;-78
2022/06/19 05:07:34;;;;;;;7.43;3.13;;;;;;;17.47;58.63;100906.37;123764;1099;104261;-77
2022/06/19 05:10:06;;;;;;;9.23;3.03;;;;;;;17.57;58.08;100910.03;123779;1099;104264;-77
2022/06/19 05:12:39;;;;;;;7.33;3.00;;;;;;;17.65;57.58;100918.97;123769;1099;104396;-77
2022/06/19 05:15:12;;;;;;;7.85;3.20;;;;;;;17.74;57.91;100919.09;123819;1099;104343;-77
2022/06/19 05:17:43;;;;;;;5.47;3.00;;;;;;;17.83;57.80;100914.80;123776;1099;104690;-78
2022/06/19 05:20:16;;;;;;;7.15;3.25;;;;;;;17.92;57.51;100917.57;123530;1099;104238;-79
2022/06/19 05:22:47;;;;;;;7.13;3.13;;;;;;;18.02;57.52;100913.28;123725;1099;104242;-78
2022/06/19 05:25:20;;;;;;;8.33;3.37;;;;;;;18.09;57.16;100921.34;123555;1099;104465;-78
2022/06/19 05:27:51;;;;;;;7.23;3.10;;;;;;;18.17;57.13;100918.77;123612;1099;104255;-78
2022/06/19 05:30:23;;;;;;;8.10;2.60;;;;;;;18.27;56.89;100925.95;123783;1099;104252;-77
2022/06/19 05:32:54;;;;;;;9.03;2.90;;;;;;;18.39;56.40;100916.35;123749;1099;104261;-78
2022/06/19 05:35:25;;;;;;;5.30;2.83;;;;;;;18.48;56.76;100913.75;123730;1098;104680;-78
2022/06/19 05:37:57;;;;;;;5.73;2.90;;;;;;;18.57;56.35;100913.84;123526;1099;104434;-78
2022/06/19 05:40:28;;;;;;;6.90;3.00;;;;;;;18.69;56.66;100916.62;123633;1098;104335;-78
2022/06/19 05:43:00;;;;;;;6.73;3.03;;;;;;;18.78;56.50;100909.62;123568;1099;104338;-78
2022/06/19 05:45:31;;;;;;;4.93;2.93;;;;;;;18.87;56.24;100912.40;123624;1099;104238;-78
2022/06/19 05:48:03;;;;;;;9.05;3.05;;;;;;;18.97;56.32;100908.03;123644;1099;104307;-77
2022/06/19 05:50:34;;;;;;;9.60;3.17;;;;;;;19.06;56.24;100905.45;123739;1099;104252;-77
2022/06/19 05:53:09;;;;;;;4.35;2.90;;;;;;;19.16;55.30;100911.71;123745;1099;104267;-77
2022/06/19 05:55:41;;;;;;;8.40;3.03;;;;;;;19.24;55.28;100907.33;123776;1099;104341;-77
2022/06/19 05:58:13;;;;;;;5.00;2.80;;;;;;;19.34;55.55;100903.86;124110;1099;104287;-78
2022/06/19 06:00:44;;;;;;;8.97;3.80;;;;;;;19.45;55.10;100909.23;123831;1099;104294;-78
2022/06/19 06:03:19;;;;;;;7.03;4.27;;;;;;;19.55;55.42;100910.17;123738;1099;104335;-78
2022/06/19 06:05:51;;;;;;;4.53;3.02;;;;;;;19.64;55.21;100902.23;123652;1099;104252;-78
2022/06/19 06:08:22;;;;;;;5.00;2.97;;;;;;;19.74;54.59;100901.41;123594;1099;104281;-75
2022/06/19 06:10:54;;;;;;;4.30;2.80;;;;;;;19.85;54.53;100897.91;124196;1099;104261;-79
2022/06/19 06:13:25;;;;;;;5.57;2.70;;;;;;;19.93;54.12;100904.18;123890;1099;104624;-78
2022/06/19 06:15:57;;;;;;;8.10;3.13;;;;;;;20.03;54.81;100900.64;123570;1099;104351;-77
2022/06/19 06:18:29;;;;;;;9.50;3.20;;;;;;;20.10;54.05;100896.22;123609;1099;104281;-78
2022/06/19 06:21:05;;;;;;;5.77;2.97;;;;;;;20.20;53.58;100887.38;123844;1099;104236;-78
2022/06/19 06:23:37;;;;;;;5.53;3.30;;;;;;;20.32;53.73;100885.61;123856;1099;104249;-77
2022/06/19 06:26:11;;;;;;;7.25;3.10;;;;;;;20.44;53.15;100894.54;123631;1099;104262;-77
2022/06/19 06:28:48;;;;;;;5.55;2.90;;;;;;;20.53;53.26;100887.43;123556;1099;104389;-76
2022/06/19 06:31:20;;;;;;;6.70;2.90;;;;;;;20.62;53.57;100890.11;123784;1099;104258;-76
2022/06/19 06:33:52;;;;;;;6.77;3.30;;;;;;;20.71;52.75;100886.56;123704;1098;104363;-78
2022/06/19 06:36:23;;;;;;;9.63;3.10;;;;;;;20.81;52.59;100875.02;123705;1098;104641;-77
2022/06/19 06:38:55;;;;;;;6.87;3.17;;;;;;;20.88;53.26;100876.80;123825;1099;104428;-77
2022/06/19 06:41:26;;;;;;;6.37;3.07;;;;;;;20.98;53.32;100875.89;123814;1099;104265;-78
2022/06/19 06:43:58;;;;;;;7.97;3.27;;;;;;;21.08;52.46;100871.42;123695;1099;104821;-77
2022/06/19 06:46:31;;;;;;;7.23;3.03;;;;;;;21.18;52.96;100875.86;123549;1099;104252;-77
2022/06/19 06:49:04;;;;;;;5.77;3.23;;;;;;;21.30;51.83;100882.05;123530;1099;104321;-79
2022/06/19 06:51:36;;;;;;;9.10;3.30;;;;;;;21.43;51.82;100880.27;123683;1099;104293;-79
2022/06/19 06:54:07;;;;;;;7.17;3.23;;;;;;;21.50;51.76;100866.92;123576;1099;104384;-77
2022/06/19 06:56:39;;;;;;;8.07;3.20;;;;;;;21.64;51.37;100873.98;123546;1099;104358;-78
2022/06/19 06:59:11;;;;;;;8.90;3.20;;;;;;;21.79;51.42;100873.03;123543;1098;104348;-78
2022/06/19 07:01:44;;;;;;;6.43;3.00;;;;;;;21.95;51.27;100868.50;123584;1099;104297;-79
2022/06/19 07:04:16;;;;;;;10.20;3.50;;;;;;;22.10;51.00;100867.53;123612;1098;104698;-77
2022/06/19 07:06:47;;;;;;;4.90;3.10;;;;;;;22.26;50.11;100866.52;123539;1099;104450;-77
2022/06/19 07:09:18;;;;;;;10.33;3.50;;;;;;;22.41;50.20;100861.11;123531;1099;104239;-76
2022/06/19 07:11:50;;;;;;;8.03;2.70;;;;;;;22.56;49.77;100868.13;123515;1099;104302;-77
2022/06/19 07:14:22;;;;;;;6.93;3.27;;;;;;;22.70;49.41;100865.31;123538;1099;104294;-76
2022/06/19 07:16:53;;;;;;;7.77;3.10;;;;;;;22.86;48.55;100865.18;123541;1099;104334;-77
2022/06/19 07:19:25;;;;;;;4.75;2.90;;;;;;;23.09;48.74;100871.26;123564;1099;104399;-77
2022/06/19 07:21:57;;;;;;;11.33;5.73;;;;;;;23.27;48.38;100871.96;123532;1099;104261;-77
2022/06/19 07:24:29;;;;;;;9.65;3.60;;;;;;;23.40;48.34;100870.90;123551;1098;104249;-78
2022/06/19 07:27:00;;;;;;;6.03;2.80;;;;;;;23.53;48.15;100870.76;123650;1099;104242;-77
2022/06/19 07:29:32;;;;;;;4.47;2.70;;;;;;;23.69;48.05;100861.64;123557;1099;104350;-77
2022/06/19 07:32:03;;;;;;;3.97;2.80;;;;;;;23.81;46.32;100871.30;123535;1099;104280;-77
2022/06/19 07:34:34;;;;;;;6.00;2.63;;;;;;;23.95;46.63;100860.42;123541;1099;104290;-77
2022/06/19 07:37:07;;;;;;;6.27;3.20;;;;;;;24.16;45.90;100861.92;123678;1099;104347;-79
2022/06/19 07:39:38;;;;;;;3.70;2.67;;;;;;;24.37;46.12;100863.38;123745;1099;104354;-77
2022/06/19 07:42:10;;;;;;;6.83;2.70;;;;;;;24.71;45.10;100866.45;123581;1099;104331;-78
2022/06/19 07:44:42;;;;;;;4.47;2.77;;;;;;;25.05;43.61;100863.14;123482;1099;104406;-77
2022/06/19 07:50:13;;;;;;;4.07;2.50;;;;;;;25.63;43.00;100852.20;123503;1099;110543;-77
2022/06/19 07:52:47;;;;;;;6.17;2.53;;;;;;;25.74;42.43;100852.88;123591;1099;104317;-79
2022/06/19 07:55:18;;;;;;;;;;;;;;;25.91;40.00;100852.47;123690;1099;104220;-79
2022/06/19 07:57:50;;;;;;;6.10;3.00;;;;;;;26.06;41.96;100848.59;123564;1098;104393;-78
2022/06/19 08:00:24;;;;;;;6.65;2.65;;;;;;;26.22;41.68;100845.55;123511;1099;104749;-77
2022/06/19 08:02:56;;;;;;;4.97;2.70;;;;;;;26.44;41.15;100844.09;123566;1099;104342;-78
2022/06/19 08:05:30;;;;;;;5.50;2.70;;;;;;;26.57;41.05;100844.70;123572;1099;104235;-79
2022/06/19 08:08:02;;;;;;;4.97;2.50;;;;;;;26.70;40.87;100830.02;123602;1099;104392;-77
2022/06/19 08:10:36;;;;;;;4.73;2.67;;;;;;;26.76;39.61;100839.75;123497;1099;107072;-77
2022/06/19 08:13:10;;;;;;;6.37;2.80;;;;;;;26.74;39.86;100836.23;123515;1099;104259;-77
2022/06/19 08:15:41;;;;;;;5.00;2.90;;;;;;;26.76;39.72;100834.37;123541;1099;104264;-78
2022/06/19 08:18:20;;;;;;;5.50;2.70;;;;;;;26.90;39.52;100836.70;123644;1099;104341;-78
2022/06/19 08:20:52;;;;;;;6.67;2.60;;;;;;;27.02;38.92;100838.16;123641;1099;118823;-77
2022/06/19 08:23:23;;;;;;;5.67;2.20;;;;;;;27.12;38.40;100834.30;123512;1099;104376;-78
2022/06/19 08:25:55;;;;;;;3.50;2.30;;;;;;;27.23;38.20;100832.17;123499;1099;104855;-78
2022/06/19 08:28:29;;;;;;;2.50;2.30;;;;;;;27.39;38.24;100829.95;123533;1099;104271;-77
2022/06/19 08:31:00;;;;;;;5.27;2.30;;;;;;;27.49;37.46;100830.59;123888;1099;104268;-78
2022/06/19 08:33:32;;;;;;;2.73;2.33;;;;;;;27.64;37.10;100828.36;123528;1099;104322;-76
2022/06/19 08:36:07;;;;;;;3.90;2.30;;;;;;;27.71;37.31;100825.44;123634;1098;104425;-79
2022/06/19 08:38:44;;;;;;;3.90;2.20;;;;;;;27.80;36.51;100819.77;123567;1099;104309;-78
2022/06/19 08:41:46;;;;;;;5.10;2.40;;;;;;;28.02;36.27;100823.61;123569;1099;110311;-77
2022/06/19 08:44:40;;;;;;;3.87;2.60;;;;;;;28.10;35.78;100822.45;123555;1099;104245;-78
2022/06/19 08:47:28;;;;;;;3.50;2.30;;;;;;;28.22;35.26;100815.78;123588;1099;104217;-77
2022/06/19 08:50:10;;;;;;;2.50;2.30;;;;;;;28.28;35.35;100820.98;123571;1099;104302;-76
2022/06/19 08:52:54;;;;;;;4.23;2.50;;;;;;;28.35;35.30;100815.38;123651;1099;104287;-79
2022/06/19 08:55:34;;;;;;;4.83;2.35;;;;;;;28.39;34.81;100812.53;123535;1099;104677;-78
2022/06/19 08:58:16;;;;;;;6.20;2.60;;;;;;;28.51;34.49;100822.02;123555;1099;104248;-76
2022/06/19 09:00:55;;;;;;;4.77;2.50;;;;;;;28.56;34.33;100817.33;123433;1099;104238;-76
2022/06/19 09:06:31;;;;;;;3.03;2.20;;;;;;;28.31;32.29;100811.88;123521;1099;104332;-78
2022/06/19 09:09:20;;;;;;;2.80;2.10;;;;;;;28.23;31.36;100814.83;123723;1099;104307;-76
2022/06/19 09:12:19;;;;;;;3.50;2.03;;;;;;;28.23;32.13;100812.13;123534;1099;104608;-77
2022/06/19 09:15:06;;;;;;;2.43;1.90;;;;;;;28.27;31.27;100810.23;123497;1099;104386;-77
2022/06/19 09:17:50;;;;;;;6.75;2.10;;;;;;;28.23;31.10;100813.95;123514;1099;104428;-78
2022/06/19 09:20:33;;;;;;;6.73;2.10;;;;;;;28.25;31.54;100801.30;123604;1099;104194;-77
2022/06/19 09:23:38;;;;;;;4.10;2.33;;;;;;;28.41;31.52;100798.98;123532;1099;104249;-78
2022/06/19 09:26:14;;;;;;;2.85;2.10;;;;;;;28.61;31.48;100810.02;123697;1099;104325;-77
2022/06/19 09:28:50;;;;;;;3.30;2.10;;;;;;;28.72;31.43;100806.03;123665;1099;104290;-77
2022/06/19 09:31:26;;;;;;;6.30;2.27;;;;;;;28.80;30.89;100812.07;123491;1099;104418;-77
2022/06/19 09:34:05;;;;;;;3.70;1.97;;;;;;;28.68;30.48;100798.05;123533;1099;104242;-77
2022/06/19 09:36:42;;;;;;;2.90;2.20;;;;;;;28.65;29.19;100797.28;123498;1099;104441;-77
2022/06/19 09:39:22;;;;;;;3.77;2.20;;;;;;;28.55;30.42;100798.48;123520;1099;104316;-76
2022/06/19 09:41:59;;;;;;;2.37;2.17;;;;;;;28.55;30.36;100796.69;123498;1099;104288;-76
2022/06/19 09:44:37;;;;;;;4.17;2.13;;;;;;;28.71;29.87;100790.80;123496;1098;104373;-78
2022/06/19 09:47:17;;;;;;;2.67;2.17;;;;;;;28.89;29.81;100779.34;123577;1099;104245;-78
2022/06/19 09:49:55;;;;;;;2.90;2.17;;;;;;;29.09;29.97;100773.17;123528;1099;104254;-77
2022/06/19 09:52:31;;;;;;;2.90;2.30;;;;;;;29.26;29.76;100775.28;123510;1099;104312;-78
2022/06/19 09:55:16;;;;;;;7.17;2.17;;;;;;;29.32;29.97;100772.34;123533;1099;104251;-77
2022/06/19 09:57:52;;;;;;;2.93;2.03;;;;;;;29.16;29.18;100776.55;123598;1099;104424;-76
2022/06/19 10:00:30;;;;;;;5.03;2.17;;;;;;;28.98;29.59;100776.27;123609;1099;104261;-78
2022/06/19 10:03:13;;;;;;;9.50;2.50;;;;;;;28.65;29.51;100768.45;123792;1099;110104;-77
2022/06/19 10:05:49;;;;;;;4.30;2.23;;;;;;;28.43;29.40;100765.59;123542;1099;104216;-78
2022/06/19 10:08:25;;;;;;;2.45;2.05;;;;;;;28.27;29.38;100764.38;123593;1099;104262;-77
2022/06/19 10:11:02;;;;;;;3.30;2.30;;;;;;;28.32;29.32;100760.56;123733;1099;104386;-78
2022/06/19 10:13:37;;;;;;;2.90;2.30;;;;;;;28.32;29.31;100762.39;123584;1099;105060;-79
2022/06/19 10:16:24;;;;;;;5.87;2.30;;;;;;;28.36;29.21;100764.06;123762;1099;104232;-78
2022/06/19 10:18:58;;;;;;;4.83;2.13;;;;;;;28.12;29.28;100765.75;123584;1099;104265;-78
2022/06/19 10:24:37;;;;;;;4.50;2.40;;;;;;;27.84;28.99;100753.13;123653;1099;104638;-77
2022/06/19 10:27:17;;;;;;;2.10;1.90;;;;;;;27.92;28.82;100764.54;123419;1098;104412;-78
2022/06/19 10:30:02;;;;;;;3.07;2.30;;;;;;;27.99;28.79;100765.28;123700;1099;104248;-78
2022/06/19 10:32:52;;;;;;;4.63;2.20;;;;;;;28.02;28.79;100764.28;123658;1099;104287;-77
2022/06/19 10:35:32;;;;;;;4.70;2.03;;;;;;;28.05;28.67;100759.69;123552;1099;104225;-77
2022/06/19 10:38:22;;;;;;;2.90;2.13;;;;;;;28.10;29.05;100762.23;123640;1099;104368;-77
2022/06/19 10:41:01;;;;;;;3.65;2.00;;;;;;;28.19;28.55;100744.84;123811;1099;104332;-77
2022/06/19 10:43:46;;;;;;;2.23;1.80;;;;;;;28.39;28.78;100747.77;123615;1099;104246;-77
2022/06/19 10:46:18;;;;;;;4.40;2.20;;;;;;;28.52;28.74;100750.91;123581;1099;104357;-77
2022/06/19 10:49:00;;;;;;;3.37;2.00;;;;;;;28.54;27.89;100754.42;123580;1099;104211;-77
2022/06/19 10:51:45;;;;;;;1.73;1.63;;;;;;;28.52;28.12;100750.91;123501;1099;104267;-78
2022/06/19 10:54:53;;;;;;;3.23;1.80;;;;;;;28.51;27.65;100741.91;123586;1099;104309;-78
2022/06/19 10:57:35;;;;;;;3.87;1.90;;;;;;;28.64;27.68;100741.51;123431;1099;104351;-79
2022/06/19 11:00:09;;;;;;;2.60;2.00;;;;;;;28.73;27.89;100745.71;123547;1099;104322;-77
2022/06/19 11:05:50;;;;;;;2.03;1.80;;;;;;;28.96;27.73;100732.23;123264;1102;104345;-78
2022/06/19 11:08:24;;;;;;;3.00;2.00;;;;;;;29.13;27.95;100730.73;123622;1099;104380;-79
2022/06/19 11:11:00;;;;;;;5.23;2.40;;;;;;;29.19;27.79;100728.70;123645;1099;104264;-77
2022/06/19 11:14:13;;;;;;;2.30;2.10;;;;;;;29.23;27.66;100734.86;123567;1099;104313;-77
2022/06/19 11:16:57;;;;;;;4.90;1.97;;;;;;;29.08;26.91;100730.02;123253;1102;104339;-76
2022/06/19 11:19:37;;;;;;;2.00;1.90;;;;;;;28.99;27.36;100737.53;123243;1102;104565;-78
2022/06/19 11:22:20;;;;;;;2.37;2.17;;;;;;;29.04;27.38;100734.66;123231;1102;104416;-74
2022/06/19 11:24:52;;;;;;;4.00;1.92;;;;;;;29.11;27.31;100727.19;123432;1101;104328;-76
2022/06/19 11:27:27;;;;;;;4.37;2.33;;;;;;;29.06;26.66;100724.66;123229;1102;104402;-75
2022/06/19 11:29:59;;;;;;;6.93;2.27;;;;;;;29.03;26.92;100722.08;123188;1102;104332;-77
2022/06/19 11:32:32;;;;;;;2.37;1.80;;;;;;;29.03;26.84;100720.28;123246;1102;104348;-77
2022/06/19 11:35:08;;;;;;;1.98;1.87;;;;;;;29.00;27.25;100720.39;123238;1101;105630;-77
2022/06/19 11:37:50;;;;;;;4.23;2.20;;;;;;;29.05;27.02;100721.09;123183;1102;104409;-76
2022/06/19 11:40:29;;;;;;;3.33;2.07;;;;;;;29.12;27.05;100707.35;123299;1102;104347;-76
2022/06/19 11:43:03;;;;;;;3.33;2.30;;;;;;;29.23;27.18;100707.84;123262;1102;104426;-77
2022/06/19 11:45:37;;;;;;;4.33;2.10;;;;;;;29.18;26.92;100715.22;123305;1101;108285;-77
2022/06/19 11:48:14;;;;;;;2.80;1.90;;;;;;;29.19;26.87;100709.80;123299;1102;104648;-77
2022/06/19 11:50:53;;;;;;;4.63;2.00;;;;;;;29.07;26.80;100707.53;123288;1102;104472;-76
2022/06/19 11:53:28;;;;;;;4.20;2.13;;;;;;;29.08;26.98;100713.80;123508;1099;104258;-76